sensor_id;sensor_type;location;lat;lon;timestamp;pressure;altitude;pressure_sealevel;temperature;humidity
17383;BME280;8809;51.892;8.384;2023-06-14T00:00:37;100555.53;;;19.26;49.50
17383;BME280;8809;51.892;8.384;2023-06-14T00:03:08;100558.16;;;19.25;49.51
17383;BME280;8809;51.892;8.384;2023-06-14T00:05:36;100560.81;;;19.22;50.10
17383;BME280;8809;51.892;8.384;2023-06-14T00:08:07;100558.13;;;19.19;49.87
17383;BME280;8809;51.892;8.384;2023-06-14T00:10:34;100552.81;;;19.16;50.29
17383;BME280;8809;51.892;8.384;2023-06-14T00:13:02;100559.84;;;19.14;50.10
17383;BME280;8809;51.892;8.384;2023-06-14T00:15:30;100561.63;;;19.10;50.47
17383;BME280;8809;51.892;8.384;2023-06-14T00:18:01;100561.59;;;19.07;50.10
17383;BME280;8809;51.892;8.384;2023-06-14T00:20:31;100567.72;;;19.05;50.82
17383;BME280;8809;51.892;8.384;2023-06-14T00:23:00;100573.00;;;19.00;50.88
17383;BME280;8809;51.892;8.384;2023-06-14T00:25:28;100571.22;;;18.98;50.46
17383;BME280;8809;51.892;8.384;2023-06-14T00:27:56;100572.94;;;18.96;50.80
17383;BME280;8809;51.892;8.384;2023-06-14T00:30:24;100588.81;;;18.93;51.03
17383;BME280;8809;51.892;8.384;2023-06-14T00:32:51;100581.72;;;18.88;50.77
17383;BME280;8809;51.892;8.384;2023-06-14T00:35:18;100577.28;;;18.86;51.14
17383;BME280;8809;51.892;8.384;2023-06-14T00:37:47;100584.31;;;18.84;50.82
17383;BME280;8809;51.892;8.384;2023-06-14T00:40:14;100586.94;;;18.79;51.56
17383;BME280;8809;51.892;8.384;2023-06-14T00:42:42;100587.78;;;18.77;51.04
17383;BME280;8809;51.892;8.384;2023-06-14T00:45:10;100589.53;;;18.73;51.62
17383;BME280;8809;51.892;8.384;2023-06-14T00:47:38;100590.38;;;18.69;51.36
17383;BME280;8809;51.892;8.384;2023-06-14T00:50:07;100595.63;;;18.66;51.54
17383;BME280;8809;51.892;8.384;2023-06-14T00:52:35;100587.69;;;18.62;51.81
17383;BME280;8809;51.892;8.384;2023-06-14T00:55:04;100587.63;;;18.59;51.93
17383;BME280;8809;51.892;8.384;2023-06-14T00:57:32;100587.63;;;18.57;51.52
17383;BME280;8809;51.892;8.384;2023-06-14T01:00:04;100591.97;;;18.52;51.77
17383;BME280;8809;51.892;8.384;2023-06-14T01:02:35;100591.06;;;18.50;52.27
17383;BME280;8809;51.892;8.384;2023-06-14T01:05:02;100594.53;;;18.46;52.29
17383;BME280;8809;51.892;8.384;2023-06-14T01:07:37;100597.19;;;18.44;51.85
17383;BME280;8809;51.892;8.384;2023-06-14T01:10:23;100594.50;;;18.41;52.47
17383;BME280;8809;51.892;8.384;2023-06-14T01:12:57;100597.09;;;18.38;52.70
17383;BME280;8809;51.892;8.384;2023-06-14T01:15:27;100593.53;;;18.36;52.59
17383;BME280;8809;51.892;8.384;2023-06-14T01:17:56;100595.28;;;18.33;52.78
17383;BME280;8809;51.892;8.384;2023-06-14T01:20:29;100605.81;;;18.30;52.95
17383;BME280;8809;51.892;8.384;2023-06-14T01:22:58;100598.75;;;18.26;52.90
17383;BME280;8809;51.892;8.384;2023-06-14T01:25:25;100601.38;;;18.24;53.08
17383;BME280;8809;51.892;8.384;2023-06-14T01:27:57;100607.50;;;18.22;52.94
17383;BME280;8809;51.892;8.384;2023-06-14T01:30:25;100600.41;;;18.17;53.67
17383;BME280;8809;51.892;8.384;2023-06-14T01:32:54;100603.06;;;18.16;52.93
17383;BME280;8809;51.892;8.384;2023-06-14T01:35:22;100595.09;;;18.14;52.87
17383;BME280;8809;51.892;8.384;2023-06-14T01:37:50;100603.91;;;18.13;53.12
17383;BME280;8809;51.892;8.384;2023-06-14T01:40:21;100603.84;;;18.10;53.47
17383;BME280;8809;51.892;8.384;2023-06-14T01:42:50;100609.09;;;18.09;53.09
17383;BME280;8809;51.892;8.384;2023-06-14T01:45:18;100604.69;;;18.06;53.46
17383;BME280;8809;51.892;8.384;2023-06-14T01:47:46;100602.03;;;18.03;53.61
17383;BME280;8809;51.892;8.384;2023-06-14T01:50:15;100602.84;;;17.99;53.29
17383;BME280;8809;51.892;8.384;2023-06-14T01:52:42;100606.34;;;17.97;53.81
17383;BME280;8809;51.892;8.384;2023-06-14T01:55:09;100613.38;;;17.95;53.65
17383;BME280;8809;51.892;8.384;2023-06-14T01:57:38;100615.06;;;17.91;53.85
17383;BME280;8809;51.892;8.384;2023-06-14T02:00:08;100615.03;;;17.88;54.04
17383;BME280;8809;51.892;8.384;2023-06-14T02:02:38;100610.59;;;17.84;54.32
17383;BME280;8809;51.892;8.384;2023-06-14T02:05:05;100614.94;;;17.80;54.27
17383;BME280;8809;51.892;8.384;2023-06-14T02:07:34;100617.56;;;17.77;54.30
17383;BME280;8809;51.892;8.384;2023-06-14T02:10:01;100623.66;;;17.73;54.22
17383;BME280;8809;51.892;8.384;2023-06-14T02:12:28;100610.38;;;17.69;54.88
17383;BME280;8809;51.892;8.384;2023-06-14T02:14:57;100616.53;;;17.66;54.63
17383;BME280;8809;51.892;8.384;2023-06-14T02:17:24;100615.59;;;17.63;54.94
17383;BME280;8809;51.892;8.384;2023-06-14T02:19:52;100617.25;;;17.59;54.92
17383;BME280;8809;51.892;8.384;2023-06-14T02:22:19;100617.22;;;17.56;55.28
17383;BME280;8809;51.892;8.384;2023-06-14T02:24:47;100622.44;;;17.52;55.40
17383;BME280;8809;51.892;8.384;2023-06-14T02:27:14;100621.53;;;17.48;55.45
17383;BME280;8809;51.892;8.384;2023-06-14T02:29:43;100625.84;;;17.44;55.46
17383;BME280;8809;51.892;8.384;2023-06-14T02:32:12;100624.03;;;17.40;55.64
17383;BME280;8809;51.892;8.384;2023-06-14T02:34:40;100617.84;;;17.37;55.68
17383;BME280;8809;51.892;8.384;2023-06-14T02:37:07;100616.03;;;17.34;55.79
17383;BME280;8809;51.892;8.384;2023-06-14T02:39:34;100621.28;;;17.33;55.81
17383;BME280;8809;51.892;8.384;2023-06-14T02:42:02;100619.50;;;17.29;55.83
17383;BME280;8809;51.892;8.384;2023-06-14T02:44:30;100615.03;;;17.26;55.95
17383;BME280;8809;51.892;8.384;2023-06-14T02:46:57;100615.00;;;17.23;56.40
17383;BME280;8809;51.892;8.384;2023-06-14T02:49:27;100617.59;;;17.20;56.27
17383;BME280;8809;51.892;8.384;2023-06-14T02:51:55;100614.91;;;17.17;56.25
17383;BME280;8809;51.892;8.384;2023-06-14T02:54:23;100618.34;;;17.13;56.26
17383;BME280;8809;51.892;8.384;2023-06-14T02:56:51;100624.47;;;17.12;56.52
17383;BME280;8809;51.892;8.384;2023-06-14T02:59:18;100624.41;;;17.06;56.54
17383;BME280;8809;51.892;8.384;2023-06-14T03:01:47;100622.59;;;17.03;56.63
17383;BME280;8809;51.892;8.384;2023-06-14T03:04:14;100620.78;;;16.99;56.47
17383;BME280;8809;51.892;8.384;2023-06-14T03:06:43;100626.88;;;16.97;56.83
17383;BME280;8809;51.892;8.384;2023-06-14T03:09:16;100623.28;;;16.92;57.03
17383;BME280;8809;51.892;8.384;2023-06-14T03:11:43;100629.41;;;16.89;56.97
17383;BME280;8809;51.892;8.384;2023-06-14T03:14:12;100634.66;;;16.88;57.15
17383;BME280;8809;51.892;8.384;2023-06-14T03:16:40;100637.22;;;16.85;57.43
17383;BME280;8809;51.892;8.384;2023-06-14T03:19:09;100642.47;;;16.82;57.57
17383;BME280;8809;51.892;8.384;2023-06-14T03:21:37;100645.03;;;16.79;57.58
17383;BME280;8809;51.892;8.384;2023-06-14T03:24:06;100640.56;;;16.75;57.78
17383;BME280;8809;51.892;8.384;2023-06-14T03:26:33;100646.69;;;16.72;58.21
17383;BME280;8809;51.892;8.384;2023-06-14T03:29:02;100646.59;;;16.67;58.37
17383;BME280;8809;51.892;8.384;2023-06-14T03:31:29;100643.91;;;16.64;58.54
17383;BME280;8809;51.892;8.384;2023-06-14T03:33:58;100648.22;;;16.61;58.54
17383;BME280;8809;51.892;8.384;2023-06-14T03:36:25;100651.66;;;16.58;58.20
17383;BME280;8809;51.892;8.384;2023-06-14T03:38:53;100656.00;;;16.56;58.25
17383;BME280;8809;51.892;8.384;2023-06-14T03:41:24;100653.31;;;16.53;58.88
17383;BME280;8809;51.892;8.384;2023-06-14T03:43:52;100661.22;;;16.52;58.67
17383;BME280;8809;51.892;8.384;2023-06-14T03:46:19;100659.41;;;16.49;59.31
17383;BME280;8809;51.892;8.384;2023-06-14T03:48:46;100652.34;;;16.48;58.74
17383;BME280;8809;51.892;8.384;2023-06-14T03:51:13;100662.84;;;16.47;59.02
17383;BME280;8809;51.892;8.384;2023-06-14T03:53:40;100661.06;;;16.46;58.77
17383;BME280;8809;51.892;8.384;2023-06-14T03:56:07;100660.16;;;16.44;59.05
17383;BME280;8809;51.892;8.384;2023-06-14T03:58:36;100662.78;;;16.42;58.88
17383;BME280;8809;51.892;8.384;2023-06-14T04:01:03;100665.38;;;16.41;59.23
17383;BME280;8809;51.892;8.384;2023-06-14T04:03:33;100677.63;;;16.39;59.84
17383;BME280;8809;51.892;8.384;2023-06-14T04:06:00;100676.72;;;16.37;59.30
17383;BME280;8809;51.892;8.384;2023-06-14T04:08:30;100676.66;;;16.35;59.28
17383;BME280;8809;51.892;8.384;2023-06-14T04:10:57;100682.78;;;16.34;59.88
17383;BME280;8809;51.892;8.384;2023-06-14T04:13:24;100684.53;;;16.32;60.13
17383;BME280;8809;51.892;8.384;2023-06-14T04:15:53;100690.66;;;16.31;60.02
17383;BME280;8809;51.892;8.384;2023-06-14T04:18:22;100687.13;;;16.30;60.40
17383;BME280;8809;51.892;8.384;2023-06-14T04:20:49;100696.78;;;16.30;59.73
17383;BME280;8809;51.892;8.384;2023-06-14T04:23:17;100705.56;;;16.30;60.71
17383;BME280;8809;51.892;8.384;2023-06-14T04:25:44;100699.41;;;16.30;60.89
17383;BME280;8809;51.892;8.384;2023-06-14T04:28:16;100707.25;;;16.28;61.60
17383;BME280;8809;51.892;8.384;2023-06-14T04:30:44;100706.38;;;16.28;61.67
17383;BME280;8809;51.892;8.384;2023-06-14T04:33:17;100712.53;;;16.28;61.54
17383;BME280;8809;51.892;8.384;2023-06-14T04:35:44;100712.50;;;16.27;62.62
17383;BME280;8809;51.892;8.384;2023-06-14T04:38:15;100716.91;;;16.28;62.98
17383;BME280;8809;51.892;8.384;2023-06-14T04:40:44;100712.50;;;16.27;62.05
17383;BME280;8809;51.892;8.384;2023-06-14T04:43:11;100722.16;;;16.28;62.02
17383;BME280;8809;51.892;8.384;2023-06-14T04:45:38;100727.44;;;16.28;62.75
17383;BME280;8809;51.892;8.384;2023-06-14T04:48:07;100722.16;;;16.28;62.64
17383;BME280;8809;51.892;8.384;2023-06-14T04:50:36;100729.22;;;16.29;62.85
17383;BME280;8809;51.892;8.384;2023-06-14T04:53:03;100726.59;;;16.29;62.82
17383;BME280;8809;51.892;8.384;2023-06-14T04:55:31;100730.16;;;16.31;63.72
17383;BME280;8809;51.892;8.384;2023-06-14T04:57:59;100731.88;;;16.30;64.10
17383;BME280;8809;51.892;8.384;2023-06-14T05:00:27;100731.06;;;16.33;64.58
17383;BME280;8809;51.892;8.384;2023-06-14T05:02:57;100730.19;;;16.34;65.97
17383;BME280;8809;51.892;8.384;2023-06-14T05:05:24;100728.44;;;16.34;64.60
17383;BME280;8809;51.892;8.384;2023-06-14T05:07:53;100729.38;;;16.37;64.69
17383;BME280;8809;51.892;8.384;2023-06-14T05:10:20;100731.09;;;16.36;64.46
17383;BME280;8809;51.892;8.384;2023-06-14T05:12:47;100732.03;;;16.38;64.08
17383;BME280;8809;51.892;8.384;2023-06-14T05:15:14;100727.69;;;16.40;64.31
17383;BME280;8809;51.892;8.384;2023-06-14T05:17:42;100722.47;;;16.42;67.06
17383;BME280;8809;51.892;8.384;2023-06-14T05:20:09;100731.28;;;16.45;66.21
17383;BME280;8809;51.892;8.384;2023-06-14T05:22:37;100737.47;;;16.47;65.95
17383;BME280;8809;51.892;8.384;2023-06-14T05:25:06;100742.81;;;16.50;65.87
17383;BME280;8809;51.892;8.384;2023-06-14T05:27:35;100732.31;;;16.52;67.02
17383;BME280;8809;51.892;8.384;2023-06-14T05:30:03;100738.50;;;16.55;67.15
17383;BME280;8809;51.892;8.384;2023-06-14T05:32:31;100735.03;;;16.56;65.69
17383;BME280;8809;51.892;8.384;2023-06-14T05:34:58;100750.03;;;16.60;66.65
17383;BME280;8809;51.892;8.384;2023-06-14T05:37:25;100743.09;;;16.64;66.43
17383;BME280;8809;51.892;8.384;2023-06-14T05:39:52;100742.28;;;16.66;67.40
17383;BME280;8809;51.892;8.384;2023-06-14T05:42:21;100742.34;;;16.69;67.10
17383;BME280;8809;51.892;8.384;2023-06-14T05:44:48;100752.94;;;16.73;67.94
17383;BME280;8809;51.892;8.384;2023-06-14T05:47:16;100751.19;;;16.73;67.19
17383;BME280;8809;51.892;8.384;2023-06-14T05:49:43;100755.66;;;16.77;66.73
17383;BME280;8809;51.892;8.384;2023-06-14T05:52:10;100759.22;;;16.79;66.98
17383;BME280;8809;51.892;8.384;2023-06-14T05:54:38;100763.66;;;16.82;67.00
17383;BME280;8809;51.892;8.384;2023-06-14T05:57:10;100764.53;;;16.82;65.86
17383;BME280;8809;51.892;8.384;2023-06-14T05:59:39;100770.75;;;16.86;67.13
17383;BME280;8809;51.892;8.384;2023-06-14T06:02:09;100764.66;;;16.88;66.91
17383;BME280;8809;51.892;8.384;2023-06-14T06:04:36;100772.63;;;16.91;66.62
17383;BME280;8809;51.892;8.384;2023-06-14T06:07:03;100772.63;;;16.93;67.04
17383;BME280;8809;51.892;8.384;2023-06-14T06:09:31;100767.44;;;16.96;66.08
17383;BME280;8809;51.892;8.384;2023-06-14T06:11:58;100770.13;;;16.99;66.90
17383;BME280;8809;51.892;8.384;2023-06-14T06:14:32;100768.47;;;17.04;66.88
17383;BME280;8809;51.892;8.384;2023-06-14T06:17:01;100771.19;;;17.09;66.72
17383;BME280;8809;51.892;8.384;2023-06-14T06:19:28;100773.84;;;17.10;66.05
17383;BME280;8809;51.892;8.384;2023-06-14T06:21:55;100764.19;;;17.12;66.23
17383;BME280;8809;51.892;8.384;2023-06-14T06:24:22;100772.22;;;17.17;66.45
17383;BME280;8809;51.892;8.384;2023-06-14T06:26:49;100771.38;;;17.19;67.28
17383;BME280;8809;51.892;8.384;2023-06-14T06:29:17;100767.03;;;17.23;66.45
17383;BME280;8809;51.892;8.384;2023-06-14T06:31:44;100774.13;;;17.25;65.66
17383;BME280;8809;51.892;8.384;2023-06-14T06:34:13;100769.75;;;17.27;66.09
17383;BME280;8809;51.892;8.384;2023-06-14T06:36:42;100776.84;;;17.31;65.32
17383;BME280;8809;51.892;8.384;2023-06-14T06:39:09;100784.81;;;17.34;64.92
17383;BME280;8809;51.892;8.384;2023-06-14T06:41:37;100774.31;;;17.36;64.55
17383;BME280;8809;51.892;8.384;2023-06-14T06:44:05;100781.38;;;17.38;63.69
17383;BME280;8809;51.892;8.384;2023-06-14T06:46:33;100779.63;;;17.40;63.77
17383;BME280;8809;51.892;8.384;2023-06-14T06:49:01;100791.13;;;17.44;63.52
17383;BME280;8809;51.892;8.384;2023-06-14T06:51:29;100784.19;;;17.48;62.98
17383;BME280;8809;51.892;8.384;2023-06-14T06:53:57;100793.03;;;17.53;62.89
17383;BME280;8809;51.892;8.384;2023-06-14T06:56:24;100801.00;;;17.56;63.38
17383;BME280;8809;51.892;8.384;2023-06-14T06:58:51;100800.19;;;17.60;63.50
17383;BME280;8809;51.892;8.384;2023-06-14T07:01:19;100794.16;;;17.65;63.08
17383;BME280;8809;51.892;8.384;2023-06-14T07:03:47;100798.59;;;17.69;62.63
17383;BME280;8809;51.892;8.384;2023-06-14T07:06:15;100789.84;;;17.72;62.36
17383;BME280;8809;51.892;8.384;2023-06-14T07:08:45;100793.47;;;17.77;62.74
17383;BME280;8809;51.892;8.384;2023-06-14T07:11:14;100786.50;;;17.82;62.46
17383;BME280;8809;51.892;8.384;2023-06-14T07:13:41;100796.28;;;17.88;62.67
17383;BME280;8809;51.892;8.384;2023-06-14T07:16:09;100794.56;;;17.91;61.88
17383;BME280;8809;51.892;8.384;2023-06-14T07:18:36;100795.53;;;17.96;61.92
17383;BME280;8809;51.892;8.384;2023-06-14T07:21:07;100792.94;;;18.01;61.92
17383;BME280;8809;51.892;8.384;2023-06-14T07:23:55;100797.44;;;18.06;61.33
17383;BME280;8809;51.892;8.384;2023-06-14T07:26:41;100800.16;;;18.12;61.64
17383;BME280;8809;51.892;8.384;2023-06-14T07:29:28;100801.09;;;18.17;60.98
17383;BME280;8809;51.892;8.384;2023-06-14T07:32:10;100804.69;;;18.23;60.73
17383;BME280;8809;51.892;8.384;2023-06-14T07:34:40;100810.06;;;18.29;61.01
17383;BME280;8809;51.892;8.384;2023-06-14T07:37:07;100808.38;;;18.34;60.84
17383;BME280;8809;51.892;8.384;2023-06-14T07:39:36;100810.19;;;18.39;60.86
17383;BME280;8809;51.892;8.384;2023-06-14T07:42:03;100809.34;;;18.42;60.38
17383;BME280;8809;51.892;8.384;2023-06-14T07:44:31;100815.56;;;18.47;59.99
17383;BME280;8809;51.892;8.384;2023-06-14T07:46:58;100826.25;;;18.53;59.76
17383;BME280;8809;51.892;8.384;2023-06-14T07:49:44;100828.09;;;18.59;60.21
17383;BME280;8809;51.892;8.384;2023-06-14T07:52:11;100821.13;;;18.64;59.71
17383;BME280;8809;51.892;8.384;2023-06-14T07:54:40;100822.06;;;18.69;60.31
17383;BME280;8809;51.892;8.384;2023-06-14T07:57:08;100815.97;;;18.76;60.43
17383;BME280;8809;51.892;8.384;2023-06-14T07:59:53;100820.47;;;18.83;59.96
17383;BME280;8809;51.892;8.384;2023-06-14T08:02:22;100808.19;;;18.88;60.22
17383;BME280;8809;51.892;8.384;2023-06-14T08:04:50;100814.41;;;18.95;60.30
17383;BME280;8809;51.892;8.384;2023-06-14T08:07:17;100810.06;;;18.98;59.84
17383;BME280;8809;51.892;8.384;2023-06-14T08:09:51;100803.06;;;19.05;60.27
17383;BME280;8809;51.892;8.384;2023-06-14T08:12:18;100818.16;;;19.12;60.67
17383;BME280;8809;51.892;8.384;2023-06-14T08:14:45;100818.22;;;19.18;59.33
17383;BME280;8809;51.892;8.384;2023-06-14T08:17:13;100816.47;;;19.23;59.99
17383;BME280;8809;51.892;8.384;2023-06-14T08:19:59;100820.06;;;19.28;58.93
17383;BME280;8809;51.892;8.384;2023-06-14T08:22:30;100821.00;;;19.33;59.87
17383;BME280;8809;51.892;8.384;2023-06-14T08:25:19;100827.25;;;19.43;59.56
17383;BME280;8809;51.892;8.384;2023-06-14T08:27:46;100818.47;;;19.47;58.84
17383;BME280;8809;51.892;8.384;2023-06-14T08:30:14;100828.28;;;19.54;59.14
17383;BME280;8809;51.892;8.384;2023-06-14T08:32:44;100824.78;;;19.61;58.83
17383;BME280;8809;51.892;8.384;2023-06-14T08:35:18;100824.03;;;19.70;58.54
17383;BME280;8809;51.892;8.384;2023-06-14T08:37:46;100823.19;;;19.77;58.80
17383;BME280;8809;51.892;8.384;2023-06-14T08:40:36;100823.28;;;19.87;58.63
17383;BME280;8809;51.892;8.384;2023-06-14T08:43:25;100820.66;;;19.93;58.23
17383;BME280;8809;51.892;8.384;2023-06-14T08:45:58;100825.16;;;20.05;57.89
17383;BME280;8809;51.892;8.384;2023-06-14T08:48:26;100824.31;;;20.12;58.02
17383;BME280;8809;51.892;8.384;2023-06-14T08:50:57;100819.94;;;20.22;57.79
17383;BME280;8809;51.892;8.384;2023-06-14T08:53:28;100825.31;;;20.31;57.53
17383;BME280;8809;51.892;8.384;2023-06-14T08:55:59;100820.13;;;20.45;57.24
17383;BME280;8809;51.892;8.384;2023-06-14T08:58:27;100830.75;;;20.58;56.85
17383;BME280;8809;51.892;8.384;2023-06-14T09:00:57;100832.63;;;20.73;56.02
17383;BME280;8809;51.892;8.384;2023-06-14T09:03:24;100828.22;;;20.87;55.96
17383;BME280;8809;51.892;8.384;2023-06-14T09:05:56;100833.59;;;21.08;55.54
17383;BME280;8809;51.892;8.384;2023-06-14T09:08:25;100834.56;;;21.26;55.20
17383;BME280;8809;51.892;8.384;2023-06-14T09:11:14;100841.66;;;21.45;54.81
17383;BME280;8809;51.892;8.384;2023-06-14T09:13:43;100839.00;;;21.63;54.40
17383;BME280;8809;51.892;8.384;2023-06-14T09:16:10;100831.97;;;21.80;53.73
17383;BME280;8809;51.892;8.384;2023-06-14T09:18:39;100838.16;;;21.90;53.28
17383;BME280;8809;51.892;8.384;2023-06-14T09:21:07;100848.78;;;22.07;52.66
17383;BME280;8809;51.892;8.384;2023-06-14T09:23:37;100840.78;;;22.25;52.17
17383;BME280;8809;51.892;8.384;2023-06-14T09:26:08;100842.50;;;22.40;52.05
17383;BME280;8809;51.892;8.384;2023-06-14T09:28:41;100854.00;;;22.55;51.93
17383;BME280;8809;51.892;8.384;2023-06-14T09:31:10;100853.06;;;22.66;50.89
17383;BME280;8809;51.892;8.384;2023-06-14T09:33:38;100843.28;;;22.81;50.98
17383;BME280;8809;51.892;8.384;2023-06-14T09:36:11;100852.97;;;22.96;50.19
17383;BME280;8809;51.892;8.384;2023-06-14T09:38:40;100849.31;;;23.15;50.55
17383;BME280;8809;51.892;8.384;2023-06-14T09:41:07;100856.31;;;23.33;50.17
17383;BME280;8809;51.892;8.384;2023-06-14T09:43:34;100856.22;;;23.51;49.94
17383;BME280;8809;51.892;8.384;2023-06-14T09:46:06;100850.88;;;23.53;49.64
17383;BME280;8809;51.892;8.384;2023-06-14T09:48:35;100851.63;;;23.67;49.32
17383;BME280;8809;51.892;8.384;2023-06-14T09:51:04;100855.09;;;23.83;48.76
17383;BME280;8809;51.892;8.384;2023-06-14T09:53:50;100862.94;;;23.96;48.79
17383;BME280;8809;51.892;8.384;2023-06-14T09:56:26;100849.50;;;24.10;47.44
17383;BME280;8809;51.892;8.384;2023-06-14T09:58:57;100849.38;;;24.21;47.74
17383;BME280;8809;51.892;8.384;2023-06-14T10:01:27;100851.97;;;24.31;46.93
17383;BME280;8809;51.892;8.384;2023-06-14T10:04:02;100849.22;;;24.40;46.81
17383;BME280;8809;51.892;8.384;2023-06-14T10:06:30;100856.22;;;24.51;46.11
17383;BME280;8809;51.892;8.384;2023-06-14T10:09:16;100857.91;;;24.59;45.94
17383;BME280;8809;51.892;8.384;2023-06-14T10:11:44;100848.03;;;24.66;46.25
17383;BME280;8809;51.892;8.384;2023-06-14T10:14:32;100849.69;;;24.74;45.59
17383;BME280;8809;51.892;8.384;2023-06-14T10:17:06;100845.13;;;24.84;45.37
17383;BME280;8809;51.892;8.384;2023-06-14T10:19:56;100856.56;;;24.95;45.16
17383;BME280;8809;51.892;8.384;2023-06-14T10:22:33;100854.69;;;25.02;45.38
17383;BME280;8809;51.892;8.384;2023-06-14T10:25:06;100841.31;;;25.06;44.90
17383;BME280;8809;51.892;8.384;2023-06-14T10:27:37;100849.19;;;25.14;44.56
17383;BME280;8809;51.892;8.384;2023-06-14T10:30:10;100850.84;;;25.24;44.18
17383;BME280;8809;51.892;8.384;2023-06-14T10:33:06;100846.28;;;25.31;43.93
17383;BME280;8809;51.892;8.384;2023-06-14T10:35:33;100854.38;;;25.26;43.35
17383;BME280;8809;51.892;8.384;2023-06-14T10:38:11;100850.72;;;25.30;43.57
17383;BME280;8809;51.892;8.384;2023-06-14T10:40:42;100843.56;;;25.35;43.34
17383;BME280;8809;51.892;8.384;2023-06-14T10:43:27;100840.78;;;25.41;43.70
17383;BME280;8809;51.892;8.384;2023-06-14T10:46:17;100848.69;;;25.47;43.06
17383;BME280;8809;51.892;8.384;2023-06-14T10:48:49;100844.16;;;25.52;42.53
17383;BME280;8809;51.892;8.384;2023-06-14T10:51:24;100828.88;;;25.64;43.21
17383;BME280;8809;51.892;8.384;2023-06-14T10:53:52;100838.41;;;25.80;43.62
17383;BME280;8809;51.892;8.384;2023-06-14T10:56:26;100836.63;;;25.80;43.17
17383;BME280;8809;51.892;8.384;2023-06-14T10:58:56;100840.97;;;25.86;42.43
17383;BME280;8809;51.892;8.384;2023-06-14T11:01:35;100846.13;;;25.97;42.97
17383;BME280;8809;51.892;8.384;2023-06-14T11:04:09;100837.91;;;26.07;42.95
17383;BME280;8809;51.892;8.384;2023-06-14T11:06:46;100828.72;;;26.23;42.97
17383;BME280;8809;51.892;8.384;2023-06-14T11:12:15;100834.88;;;26.29;42.27
17383;BME280;8809;51.892;8.384;2023-06-14T11:14:45;100840.97;;;26.37;41.92
17383;BME280;8809;51.892;8.384;2023-06-14T11:17:13;100842.78;;;26.35;41.61
17383;BME280;8809;51.892;8.384;2023-06-14T11:19:42;100830.22;;;26.38;41.95
17383;BME280;8809;51.892;8.384;2023-06-14T11:22:09;100831.38;;;26.23;42.14
17383;BME280;8809;51.892;8.384;2023-06-14T11:24:36;100835.16;;;26.13;41.56
17383;BME280;8809;51.892;8.384;2023-06-14T11:27:05;100832.69;;;26.01;41.89
17383;BME280;8809;51.892;8.384;2023-06-14T11:29:34;100828.84;;;26.14;41.85
17383;BME280;8809;51.892;8.384;2023-06-14T11:32:02;100824.28;;;26.22;41.87
17383;BME280;8809;51.892;8.384;2023-06-14T11:34:29;100824.19;;;26.29;41.77
17383;BME280;8809;51.892;8.384;2023-06-14T11:36:59;100826.72;;;26.35;41.54
17383;BME280;8809;51.892;8.384;2023-06-14T11:39:27;100820.41;;;26.39;41.49
17383;BME280;8809;51.892;8.384;2023-06-14T11:41:54;100814.09;;;26.43;41.17
17383;BME280;8809;51.892;8.384;2023-06-14T11:44:25;100819.28;;;26.52;41.46
17383;BME280;8809;51.892;8.384;2023-06-14T11:46:53;100812.75;;;26.64;41.32
17383;BME280;8809;51.892;8.384;2023-06-14T11:49:27;100810.75;;;26.73;41.13
17383;BME280;8809;51.892;8.384;2023-06-14T11:51:55;100815.97;;;26.81;40.63
17383;BME280;8809;51.892;8.384;2023-06-14T11:54:24;100808.63;;;26.90;40.76
17383;BME280;8809;51.892;8.384;2023-06-14T11:56:52;100815.69;;;26.94;40.43
17383;BME280;8809;51.892;8.384;2023-06-14T11:59:20;100806.47;;;27.08;40.97
17383;BME280;8809;51.892;8.384;2023-06-14T12:01:48;100820.63;;;27.13;40.32
17383;BME280;8809;51.892;8.384;2023-06-14T12:04:23;100818.16;;;27.04;40.10
17383;BME280;8809;51.892;8.384;2023-06-14T12:07:12;100823.00;;;26.85;39.59
17383;BME280;8809;51.892;8.384;2023-06-14T12:09:46;100806.25;;;26.77;39.93
17383;BME280;8809;51.892;8.384;2023-06-14T12:12:56;100807.19;;;26.74;39.73
17383;BME280;8809;51.892;8.384;2023-06-14T12:15:28;100816.13;;;26.73;39.85
17383;BME280;8809;51.892;8.384;2023-06-14T12:17:58;100811.59;;;26.77;39.77
17383;BME280;8809;51.892;8.384;2023-06-14T12:20:29;100805.59;;;26.66;39.19
17383;BME280;8809;51.892;8.384;2023-06-14T12:22:59;100810.00;;;26.68;39.40
17383;BME280;8809;51.892;8.384;2023-06-14T12:25:33;100806.16;;;26.81;40.42
17383;BME280;8809;51.892;8.384;2023-06-14T12:28:05;100801.50;;;26.89;39.34
17383;BME280;8809;51.892;8.384;2023-06-14T12:30:33;100806.88;;;26.89;39.69
17383;BME280;8809;51.892;8.384;2023-06-14T12:33:05;100804.25;;;26.86;37.71
17383;BME280;8809;51.892;8.384;2023-06-14T12:35:35;100801.44;;;26.92;39.31
17383;BME280;8809;51.892;8.384;2023-06-14T12:38:03;100803.91;;;27.02;40.07
17383;BME280;8809;51.892;8.384;2023-06-14T12:40:33;100815.28;;;27.13;39.20
17383;BME280;8809;51.892;8.384;2023-06-14T12:43:01;100810.56;;;27.24;39.57
17383;BME280;8809;51.892;8.384;2023-06-14T12:45:29;100813.94;;;27.32;39.73
17383;BME280;8809;51.892;8.384;2023-06-14T12:47:56;100812.91;;;27.38;39.77
17383;BME280;8809;51.892;8.384;2023-06-14T12:50:29;100799.34;;;27.45;38.61
17383;BME280;8809;51.892;8.384;2023-06-14T12:52:56;100810.81;;;27.50;38.53
17383;BME280;8809;51.892;8.384;2023-06-14T12:55:23;100816.84;;;27.60;39.24
17383;BME280;8809;51.892;8.384;2023-06-14T12:57:55;100814.31;;;27.55;38.90
17383;BME280;8809;51.892;8.384;2023-06-14T13:00:23;100815.97;;;27.59;39.38
17383;BME280;8809;51.892;8.384;2023-06-14T13:02:55;100814.25;;;27.58;38.54
17383;BME280;8809;51.892;8.384;2023-06-14T13:05:24;100812.69;;;27.47;39.32
17383;BME280;8809;51.892;8.384;2023-06-14T13:07:52;100817.06;;;27.49;39.43
17383;BME280;8809;51.892;8.384;2023-06-14T13:10:20;100816.94;;;27.57;39.34
17383;BME280;8809;51.892;8.384;2023-06-14T13:12:49;100819.50;;;27.61;40.04
17383;BME280;8809;51.892;8.384;2023-06-14T13:15:18;100813.28;;;27.59;39.07
17383;BME280;8809;51.892;8.384;2023-06-14T13:17:46;100817.31;;;27.40;38.62